sensor_id;sensor_type;location;lat;lon;timestamp;P1;durP1;ratioP1;P2;durP2;ratioP2
11970;SDS011;6045;42.682;23.294;2023-04-21T00:01:47;4.67;;;3.63;;
11970;SDS011;6045;42.682;23.294;2023-04-21T00:04:14;4.63;;;3.47;;
11970;SDS011;6045;42.682;23.294;2023-04-21T00:06:41;4.20;;;2.73;;
11970;SDS011;6045;42.682;23.294;2023-04-21T00:09:08;4.63;;;3.10;;
11970;SDS011;6045;42.682;23.294;2023-04-21T00:11:35;5.53;;;3.43;;
11970;SDS011;6045;42.682;23.294;2023-04-21T00:14:04;3.53;;;2.73;;
11970;SDS011;6045;42.682;23.294;2023-04-21T00:16:30;5.43;;;3.33;;
11970;SDS011;6045;42.682;23.294;2023-04-21T00:18:57;4.07;;;3.33;;
11970;SDS011;6045;42.682;23.294;2023-04-21T00:21:24;5.37;;;3.40;;
11970;SDS011;6045;42.682;23.294;2023-04-21T00:23:51;5.50;;;2.87;;
11970;SDS011;6045;42.682;23.294;2023-04-21T00:26:18;5.60;;;3.40;;
11970;SDS011;6045;42.682;23.294;2023-04-21T00:28:45;5.03;;;3.53;;
11970;SDS011;6045;42.682;23.294;2023-04-21T00:31:13;6.97;;;3.90;;
11970;SDS011;6045;42.682;23.294;2023-04-21T00:33:40;5.07;;;3.73;;
11970;SDS011;6045;42.682;23.294;2023-04-21T00:36:07;4.73;;;3.43;;
11970;SDS011;6045;42.682;23.294;2023-04-21T00:38:33;5.23;;;3.37;;
11970;SDS011;6045;42.682;23.294;2023-04-21T00:41:00;4.17;;;3.10;;
11970;SDS011;6045;42.682;23.294;2023-04-21T00:43:27;4.27;;;3.40;;
11970;SDS011;6045;42.682;23.294;2023-04-21T00:45:54;7.90;;;4.60;;
11970;SDS011;6045;42.682;23.294;2023-04-21T00:48:22;5.43;;;3.17;;
11970;SDS011;6045;42.682;23.294;2023-04-21T00:50:49;5.10;;;3.23;;
11970;SDS011;6045;42.682;23.294;2023-04-21T00:53:16;7.87;;;3.67;;
11970;SDS011;6045;42.682;23.294;2023-04-21T00:55:43;5.97;;;3.20;;
11970;SDS011;6045;42.682;23.294;2023-04-21T00:58:10;5.33;;;3.93;;
11970;SDS011;6045;42.682;23.294;2023-04-21T01:00:37;5.00;;;3.07;;
11970;SDS011;6045;42.682;23.294;2023-04-21T01:03:04;4.97;;;3.43;;
11970;SDS011;6045;42.682;23.294;2023-04-21T01:05:33;5.03;;;3.67;;
11970;SDS011;6045;42.682;23.294;2023-04-21T01:08:00;10.83;;;2.80;;
11970;SDS011;6045;42.682;23.294;2023-04-21T01:10:27;6.13;;;3.20;;
11970;SDS011;6045;42.682;23.294;2023-04-21T01:12:54;4.40;;;3.20;;
11970;SDS011;6045;42.682;23.294;2023-04-21T01:15:21;4.27;;;3.53;;
11970;SDS011;6045;42.682;23.294;2023-04-21T01:17:47;4.43;;;2.90;;
11970;SDS011;6045;42.682;23.294;2023-04-21T01:20:14;7.07;;;3.50;;
11970;SDS011;6045;42.682;23.294;2023-04-21T01:22:42;5.63;;;3.03;;
11970;SDS011;6045;42.682;23.294;2023-04-21T01:25:09;3.87;;;2.80;;
11970;SDS011;6045;42.682;23.294;2023-04-21T01:27:36;6.93;;;2.93;;
11970;SDS011;6045;42.682;23.294;2023-04-21T01:30:03;4.60;;;2.33;;
11970;SDS011;6045;42.682;23.294;2023-04-21T01:32:34;5.77;;;2.90;;
11970;SDS011;6045;42.682;23.294;2023-04-21T01:35:01;3.43;;;3.13;;
11970;SDS011;6045;42.682;23.294;2023-04-21T01:37:28;4.27;;;2.90;;
11970;SDS011;6045;42.682;23.294;2023-04-21T01:39:59;4.77;;;3.03;;
11970;SDS011;6045;42.682;23.294;2023-04-21T01:42:29;3.80;;;2.63;;
11970;SDS011;6045;42.682;23.294;2023-04-21T01:44:56;7.37;;;2.70;;
11970;SDS011;6045;42.682;23.294;2023-04-21T01:47:24;4.37;;;3.10;;
11970;SDS011;6045;42.682;23.294;2023-04-21T01:49:51;4.00;;;2.70;;
11970;SDS011;6045;42.682;23.294;2023-04-21T01:52:18;3.80;;;2.83;;
11970;SDS011;6045;42.682;23.294;2023-04-21T01:54:45;4.10;;;3.40;;
11970;SDS011;6045;42.682;23.294;2023-04-21T01:57:14;4.60;;;3.50;;
11970;SDS011;6045;42.682;23.294;2023-04-21T01:59:40;2.93;;;2.63;;
11970;SDS011;6045;42.682;23.294;2023-04-21T02:02:07;4.90;;;3.80;;
11970;SDS011;6045;42.682;23.294;2023-04-21T02:04:34;5.13;;;3.60;;
11970;SDS011;6045;42.682;23.294;2023-04-21T02:07:01;4.03;;;2.43;;
11970;SDS011;6045;42.682;23.294;2023-04-21T02:09:28;4.13;;;2.97;;
11970;SDS011;6045;42.682;23.294;2023-04-21T02:11:55;3.73;;;3.43;;
11970;SDS011;6045;42.682;23.294;2023-04-21T02:14:23;4.23;;;3.30;;
11970;SDS011;6045;42.682;23.294;2023-04-21T02:16:50;4.80;;;3.37;;
11970;SDS011;6045;42.682;23.294;2023-04-21T02:19:17;6.67;;;3.40;;
11970;SDS011;6045;42.682;23.294;2023-04-21T02:21:44;5.97;;;3.30;;
11970;SDS011;6045;42.682;23.294;2023-04-21T02:24:11;4.47;;;3.30;;
11970;SDS011;6045;42.682;23.294;2023-04-21T02:26:38;4.33;;;3.07;;
11970;SDS011;6045;42.682;23.294;2023-04-21T02:29:04;3.03;;;2.73;;
11970;SDS011;6045;42.682;23.294;2023-04-21T02:31:33;4.73;;;3.73;;
11970;SDS011;6045;42.682;23.294;2023-04-21T02:33:59;4.20;;;2.73;;
11970;SDS011;6045;42.682;23.294;2023-04-21T02:36:26;5.87;;;2.97;;
11970;SDS011;6045;42.682;23.294;2023-04-21T02:38:53;5.00;;;4.03;;
11970;SDS011;6045;42.682;23.294;2023-04-21T02:41:20;5.33;;;3.77;;
11970;SDS011;6045;42.682;23.294;2023-04-21T02:43:47;6.93;;;3.53;;
11970;SDS011;6045;42.682;23.294;2023-04-21T02:46:14;5.73;;;3.70;;
11970;SDS011;6045;42.682;23.294;2023-04-21T02:48:42;5.33;;;3.40;;
11970;SDS011;6045;42.682;23.294;2023-04-21T02:51:12;7.00;;;3.57;;
11970;SDS011;6045;42.682;23.294;2023-04-21T02:53:39;4.83;;;2.90;;
11970;SDS011;6045;42.682;23.294;2023-04-21T02:56:06;4.73;;;3.17;;
11970;SDS011;6045;42.682;23.294;2023-04-21T02:58:34;4.13;;;3.43;;
11970;SDS011;6045;42.682;23.294;2023-04-21T03:01:00;5.27;;;3.73;;
11970;SDS011;6045;42.682;23.294;2023-04-21T03:03:28;4.80;;;3.77;;
11970;SDS011;6045;42.682;23.294;2023-04-21T03:05:57;5.93;;;2.87;;
11970;SDS011;6045;42.682;23.294;2023-04-21T03:08:24;5.53;;;3.77;;
11970;SDS011;6045;42.682;23.294;2023-04-21T03:10:51;4.47;;;2.57;;
11970;SDS011;6045;42.682;23.294;2023-04-21T03:13:18;5.83;;;3.00;;
11970;SDS011;6045;42.682;23.294;2023-04-21T03:15:45;4.07;;;2.80;;
11970;SDS011;6045;42.682;23.294;2023-04-21T03:18:12;4.97;;;3.30;;
11970;SDS011;6045;42.682;23.294;2023-04-21T03:20:39;6.30;;;3.10;;
11970;SDS011;6045;42.682;23.294;2023-04-21T03:23:07;4.97;;;3.50;;
11970;SDS011;6045;42.682;23.294;2023-04-21T03:25:34;5.50;;;3.53;;
11970;SDS011;6045;42.682;23.294;2023-04-21T03:28:01;5.37;;;3.13;;
11970;SDS011;6045;42.682;23.294;2023-04-21T03:30:28;5.37;;;3.27;;
11970;SDS011;6045;42.682;23.294;2023-04-21T03:32:54;4.97;;;3.37;;
11970;SDS011;6045;42.682;23.294;2023-04-21T03:35:22;4.20;;;3.07;;
11970;SDS011;6045;42.682;23.294;2023-04-21T03:37:49;6.73;;;3.50;;
11970;SDS011;6045;42.682;23.294;2023-04-21T03:40:17;4.17;;;2.73;;
11970;SDS011;6045;42.682;23.294;2023-04-21T03:42:44;4.60;;;3.13;;
11970;SDS011;6045;42.682;23.294;2023-04-21T03:45:11;5.97;;;3.33;;
11970;SDS011;6045;42.682;23.294;2023-04-21T03:47:37;6.53;;;3.23;;
11970;SDS011;6045;42.682;23.294;2023-04-21T03:50:05;6.60;;;3.47;;
11970;SDS011;6045;42.682;23.294;2023-04-21T03:52:32;4.30;;;3.33;;
11970;SDS011;6045;42.682;23.294;2023-04-21T03:54:59;5.67;;;4.43;;
11970;SDS011;6045;42.682;23.294;2023-04-21T03:57:27;9.10;;;2.97;;
11970;SDS011;6045;42.682;23.294;2023-04-21T03:59:54;4.73;;;3.60;;
11970;SDS011;6045;42.682;23.294;2023-04-21T04:02:21;4.23;;;3.60;;
11970;SDS011;6045;42.682;23.294;2023-04-21T04:04:47;6.00;;;3.70;;
11970;SDS011;6045;42.682;23.294;2023-04-21T04:07:14;3.53;;;2.90;;
11970;SDS011;6045;42.682;23.294;2023-04-21T04:09:41;6.50;;;3.67;;
11970;SDS011;6045;42.682;23.294;2023-04-21T04:12:08;5.47;;;3.70;;
11970;SDS011;6045;42.682;23.294;2023-04-21T04:14:36;7.97;;;3.83;;
11970;SDS011;6045;42.682;23.294;2023-04-21T04:17:03;7.40;;;3.77;;
11970;SDS011;6045;42.682;23.294;2023-04-21T04:19:30;6.70;;;4.93;;
11970;SDS011;6045;42.682;23.294;2023-04-21T04:21:57;6.97;;;4.37;;
11970;SDS011;6045;42.682;23.294;2023-04-21T04:24:25;6.00;;;3.97;;
11970;SDS011;6045;42.682;23.294;2023-04-21T04:26:52;4.80;;;4.00;;
11970;SDS011;6045;42.682;23.294;2023-04-21T04:29:20;4.90;;;3.80;;
11970;SDS011;6045;42.682;23.294;2023-04-21T04:31:49;3.80;;;3.43;;
11970;SDS011;6045;42.682;23.294;2023-04-21T04:34:16;6.97;;;3.83;;
11970;SDS011;6045;42.682;23.294;2023-04-21T04:36:43;6.93;;;3.50;;
11970;SDS011;6045;42.682;23.294;2023-04-21T04:39:10;6.47;;;4.20;;
11970;SDS011;6045;42.682;23.294;2023-04-21T04:41:36;10.00;;;4.93;;
11970;SDS011;6045;42.682;23.294;2023-04-21T04:44:03;5.63;;;3.50;;
11970;SDS011;6045;42.682;23.294;2023-04-21T04:46:30;7.23;;;3.77;;
11970;SDS011;6045;42.682;23.294;2023-04-21T04:48:59;6.33;;;4.37;;
11970;SDS011;6045;42.682;23.294;2023-04-21T04:51:26;4.40;;;3.80;;
11970;SDS011;6045;42.682;23.294;2023-04-21T04:53:53;5.10;;;4.07;;
11970;SDS011;6045;42.682;23.294;2023-04-21T04:56:19;7.27;;;4.27;;
11970;SDS011;6045;42.682;23.294;2023-04-21T04:58:47;5.80;;;3.33;;
11970;SDS011;6045;42.682;23.294;2023-04-21T05:01:14;4.20;;;3.10;;
11970;SDS011;6045;42.682;23.294;2023-04-21T05:03:42;6.77;;;4.17;;
11970;SDS011;6045;42.682;23.294;2023-04-21T05:06:11;4.80;;;3.43;;
11970;SDS011;6045;42.682;23.294;2023-04-21T05:08:38;3.67;;;3.30;;
11970;SDS011;6045;42.682;23.294;2023-04-21T05:11:05;5.47;;;3.53;;
11970;SDS011;6045;42.682;23.294;2023-04-21T05:13:32;3.87;;;3.00;;
11970;SDS011;6045;42.682;23.294;2023-04-21T05:15:59;5.07;;;3.80;;
11970;SDS011;6045;42.682;23.294;2023-04-21T05:18:26;4.80;;;3.60;;
11970;SDS011;6045;42.682;23.294;2023-04-21T05:20:53;4.87;;;3.57;;
11970;SDS011;6045;42.682;23.294;2023-04-21T05:23:22;5.80;;;3.27;;
11970;SDS011;6045;42.682;23.294;2023-04-21T05:25:49;3.93;;;3.10;;
11970;SDS011;6045;42.682;23.294;2023-04-21T05:28:15;4.87;;;3.13;;
11970;SDS011;6045;42.682;23.294;2023-04-21T05:30:42;6.80;;;3.70;;
11970;SDS011;6045;42.682;23.294;2023-04-21T05:33:09;5.17;;;3.93;;
11970;SDS011;6045;42.682;23.294;2023-04-21T05:35:36;6.23;;;3.30;;
11970;SDS011;6045;42.682;23.294;2023-04-21T05:38:02;6.90;;;4.00;;
11970;SDS011;6045;42.682;23.294;2023-04-21T05:40:31;6.70;;;4.17;;
11970;SDS011;6045;42.682;23.294;2023-04-21T05:42:57;7.37;;;4.50;;
11970;SDS011;6045;42.682;23.294;2023-04-21T05:45:24;4.63;;;3.73;;
11970;SDS011;6045;42.682;23.294;2023-04-21T05:47:51;7.27;;;4.03;;
11970;SDS011;6045;42.682;23.294;2023-04-21T05:50:18;6.33;;;3.50;;
11970;SDS011;6045;42.682;23.294;2023-04-21T05:52:44;5.57;;;4.40;;
11970;SDS011;6045;42.682;23.294;2023-04-21T05:55:11;12.37;;;6.53;;
11970;SDS011;6045;42.682;23.294;2023-04-21T05:57:39;6.00;;;4.63;;
11970;SDS011;6045;42.682;23.294;2023-04-21T06:00:07;4.07;;;3.27;;
11970;SDS011;6045;42.682;23.294;2023-04-21T06:02:34;3.80;;;3.30;;
11970;SDS011;6045;42.682;23.294;2023-04-21T06:05:01;5.00;;;3.47;;
11970;SDS011;6045;42.682;23.294;2023-04-21T06:07:28;4.40;;;3.73;;
11970;SDS011;6045;42.682;23.294;2023-04-21T06:09:55;6.20;;;3.80;;
11970;SDS011;6045;42.682;23.294;2023-04-21T06:12:22;4.20;;;2.83;;
11970;SDS011;6045;42.682;23.294;2023-04-21T06:14:53;5.43;;;3.80;;
11970;SDS011;6045;42.682;23.294;2023-04-21T06:17:21;5.00;;;3.80;;
11970;SDS011;6045;42.682;23.294;2023-04-21T06:19:48;5.50;;;3.50;;
11970;SDS011;6045;42.682;23.294;2023-04-21T06:22:17;4.63;;;3.75;;
11970;SDS011;6045;42.682;23.294;2023-04-21T06:24:45;4.88;;;3.67;;
11970;SDS011;6045;42.682;23.294;2023-04-21T06:27:11;6.82;;;3.60;;
11970;SDS011;6045;42.682;23.294;2023-04-21T06:29:39;4.53;;;3.28;;
11970;SDS011;6045;42.682;23.294;2023-04-21T06:32:08;5.28;;;3.88;;
11970;SDS011;6045;42.682;23.294;2023-04-21T06:34:35;7.47;;;3.53;;
11970;SDS011;6045;42.682;23.294;2023-04-21T06:37:01;5.10;;;3.45;;
11970;SDS011;6045;42.682;23.294;2023-04-21T06:39:28;5.18;;;3.40;;
11970;SDS011;6045;42.682;23.294;2023-04-21T06:41:55;5.20;;;3.65;;
11970;SDS011;6045;42.682;23.294;2023-04-21T06:44:23;4.35;;;3.40;;
11970;SDS011;6045;42.682;23.294;2023-04-21T06:46:49;5.78;;;3.83;;
11970;SDS011;6045;42.682;23.294;2023-04-21T06:49:18;4.82;;;3.90;;
11970;SDS011;6045;42.682;23.294;2023-04-21T06:51:44;4.05;;;3.30;;
11970;SDS011;6045;42.682;23.294;2023-04-21T06:54:11;4.25;;;3.60;;
11970;SDS011;6045;42.682;23.294;2023-04-21T06:56:38;8.95;;;4.35;;
11970;SDS011;6045;42.682;23.294;2023-04-21T06:59:06;5.53;;;3.60;;
11970;SDS011;6045;42.682;23.294;2023-04-21T07:01:34;4.05;;;3.00;;
11970;SDS011;6045;42.682;23.294;2023-04-21T07:04:03;4.85;;;3.40;;
11970;SDS011;6045;42.682;23.294;2023-04-21T07:06:32;5.00;;;3.20;;
11970;SDS011;6045;42.682;23.294;2023-04-21T07:08:58;4.70;;;3.08;;
11970;SDS011;6045;42.682;23.294;2023-04-21T07:11:25;4.50;;;2.90;;
11970;SDS011;6045;42.682;23.294;2023-04-21T07:13:53;5.63;;;3.05;;
11970;SDS011;6045;42.682;23.294;2023-04-21T07:16:19;6.65;;;3.08;;
11970;SDS011;6045;42.682;23.294;2023-04-21T07:18:46;4.63;;;3.22;;
11970;SDS011;6045;42.682;23.294;2023-04-21T07:21:13;3.92;;;3.45;;
11970;SDS011;6045;42.682;23.294;2023-04-21T07:23:41;5.78;;;2.50;;
11970;SDS011;6045;42.682;23.294;2023-04-21T07:26:08;4.68;;;3.60;;
11970;SDS011;6045;42.682;23.294;2023-04-21T07:28:35;4.70;;;3.17;;
11970;SDS011;6045;42.682;23.294;2023-04-21T07:31:03;4.00;;;3.28;;
11970;SDS011;6045;42.682;23.294;2023-04-21T07:33:30;4.53;;;2.38;;
11970;SDS011;6045;42.682;23.294;2023-04-21T07:35:57;4.32;;;3.30;;
11970;SDS011;6045;42.682;23.294;2023-04-21T07:38:24;4.40;;;3.17;;
11970;SDS011;6045;42.682;23.294;2023-04-21T07:40:52;4.90;;;3.17;;
11970;SDS011;6045;42.682;23.294;2023-04-21T07:43:18;5.30;;;3.45;;
11970;SDS011;6045;42.682;23.294;2023-04-21T07:45:45;3.22;;;2.92;;
11970;SDS011;6045;42.682;23.294;2023-04-21T07:48:12;4.47;;;3.47;;
11970;SDS011;6045;42.682;23.294;2023-04-21T07:50:39;6.25;;;3.25;;
11970;SDS011;6045;42.682;23.294;2023-04-21T07:53:06;5.25;;;3.28;;
11970;SDS011;6045;42.682;23.294;2023-04-21T07:55:33;4.03;;;2.55;;
11970;SDS011;6045;42.682;23.294;2023-04-21T07:58:02;3.67;;;2.97;;
11970;SDS011;6045;42.682;23.294;2023-04-21T08:00:29;5.60;;;3.63;;
11970;SDS011;6045;42.682;23.294;2023-04-21T08:02:56;4.88;;;3.60;;
11970;SDS011;6045;42.682;23.294;2023-04-21T08:05:23;5.15;;;3.25;;
11970;SDS011;6045;42.682;23.294;2023-04-21T08:07:49;4.68;;;3.08;;
11970;SDS011;6045;42.682;23.294;2023-04-21T08:10:17;3.88;;;2.63;;
11970;SDS011;6045;42.682;23.294;2023-04-21T08:12:44;4.30;;;3.17;;
11970;SDS011;6045;42.682;23.294;2023-04-21T08:15:12;7.95;;;4.05;;
11970;SDS011;6045;42.682;23.294;2023-04-21T08:17:39;5.68;;;3.50;;
11970;SDS011;6045;42.682;23.294;2023-04-21T08:20:06;4.93;;;3.00;;
11970;SDS011;6045;42.682;23.294;2023-04-21T08:22:34;3.47;;;2.92;;
11970;SDS011;6045;42.682;23.294;2023-04-21T08:25:01;3.20;;;2.90;;
11970;SDS011;6045;42.682;23.294;2023-04-21T08:27:28;4.32;;;3.20;;
11970;SDS011;6045;42.682;23.294;2023-04-21T08:29:54;3.38;;;2.72;;
11970;SDS011;6045;42.682;23.294;2023-04-21T08:32:22;5.55;;;3.10;;
11970;SDS011;6045;42.682;23.294;2023-04-21T08:34:50;4.50;;;3.05;;
11970;SDS011;6045;42.682;23.294;2023-04-21T08:37:17;3.70;;;2.42;;
11970;SDS011;6045;42.682;23.294;2023-04-21T08:39:45;5.30;;;3.13;;
11970;SDS011;6045;42.682;23.294;2023-04-21T08:42:12;8.07;;;3.00;;
11970;SDS011;6045;42.682;23.294;2023-04-21T08:44:39;4.63;;;3.00;;
11970;SDS011;6045;42.682;23.294;2023-04-21T08:47:07;3.67;;;2.78;;
11970;SDS011;6045;42.682;23.294;2023-04-21T08:49:37;3.95;;;2.75;;
11970;SDS011;6045;42.682;23.294;2023-04-21T08:52:05;4.13;;;3.08;;
11970;SDS011;6045;42.682;23.294;2023-04-21T08:54:32;4.53;;;2.90;;
11970;SDS011;6045;42.682;23.294;2023-04-21T08:57:00;4.25;;;3.15;;
11970;SDS011;6045;42.682;23.294;2023-04-21T08:59:27;4.05;;;2.42;;
11970;SDS011;6045;42.682;23.294;2023-04-21T09:02:06;2.95;;;2.28;;
11970;SDS011;6045;42.682;23.294;2023-04-21T09:04:38;3.55;;;2.40;;
11970;SDS011;6045;42.682;23.294;2023-04-21T09:07:06;3.58;;;3.00;;
11970;SDS011;6045;42.682;23.294;2023-04-21T09:09:33;3.03;;;2.30;;
11970;SDS011;6045;42.682;23.294;2023-04-21T09:12:16;3.35;;;2.90;;
11970;SDS011;6045;42.682;23.294;2023-04-21T09:14:43;2.45;;;2.17;;
11970;SDS011;6045;42.682;23.294;2023-04-21T09:17:10;4.68;;;2.80;;
11970;SDS011;6045;42.682;23.294;2023-04-21T09:19:36;5.18;;;3.00;;
11970;SDS011;6045;42.682;23.294;2023-04-21T09:22:05;2.72;;;2.25;;
11970;SDS011;6045;42.682;23.294;2023-04-21T09:24:31;3.17;;;2.17;;
11970;SDS011;6045;42.682;23.294;2023-04-21T09:26:58;2.70;;;2.05;;
11970;SDS011;6045;42.682;23.294;2023-04-21T09:29:28;4.57;;;2.50;;
11970;SDS011;6045;42.682;23.294;2023-04-21T09:31:55;3.13;;;2.60;;
11970;SDS011;6045;42.682;23.294;2023-04-21T09:34:22;2.80;;;2.22;;
11970;SDS011;6045;42.682;23.294;2023-04-21T09:36:59;2.53;;;2.33;;
11970;SDS011;6045;42.682;23.294;2023-04-21T09:39:27;3.40;;;2.22;;
11970;SDS011;6045;42.682;23.294;2023-04-21T09:41:54;3.58;;;2.28;;
11970;SDS011;6045;42.682;23.294;2023-04-21T09:44:22;3.42;;;2.35;;
11970;SDS011;6045;42.682;23.294;2023-04-21T09:46:49;3.22;;;2.13;;
11970;SDS011;6045;42.682;23.294;2023-04-21T09:49:20;2.58;;;2.38;;
11970;SDS011;6045;42.682;23.294;2023-04-21T09:51:48;7.30;;;2.20;;
11970;SDS011;6045;42.682;23.294;2023-04-21T09:54:17;3.70;;;2.42;;
11970;SDS011;6045;42.682;23.294;2023-04-21T09:56:49;2.75;;;2.38;;
11970;SDS011;6045;42.682;23.294;2023-04-21T09:59:19;3.20;;;2.30;;
11970;SDS011;6045;42.682;23.294;2023-04-21T10:01:51;4.65;;;2.60;;
11970;SDS011;6045;42.682;23.294;2023-04-21T10:04:20;3.60;;;2.03;;
11970;SDS011;6045;42.682;23.294;2023-04-21T10:06:48;3.45;;;2.30;;
11970;SDS011;6045;42.682;23.294;2023-04-21T10:09:19;2.75;;;2.20;;
11970;SDS011;6045;42.682;23.294;2023-04-21T10:11:48;4.07;;;2.60;;
11970;SDS011;6045;42.682;23.294;2023-04-21T10:14:15;2.35;;;2.15;;
11970;SDS011;6045;42.682;23.294;2023-04-21T10:16:41;2.95;;;2.47;;
11970;SDS011;6045;42.682;23.294;2023-04-21T10:19:24;3.20;;;2.28;;
11970;SDS011;6045;42.682;23.294;2023-04-21T10:21:54;4.40;;;2.95;;
11970;SDS011;6045;42.682;23.294;2023-04-21T10:24:22;3.45;;;3.15;;
11970;SDS011;6045;42.682;23.294;2023-04-21T10:26:49;5.40;;;3.03;;
11970;SDS011;6045;42.682;23.294;2023-04-21T10:29:21;3.78;;;2.85;;
11970;SDS011;6045;42.682;23.294;2023-04-21T10:31:55;4.30;;;2.63;;
11970;SDS011;6045;42.682;23.294;2023-04-21T10:34:28;5.25;;;3.08;;
11970;SDS011;6045;42.682;23.294;2023-04-21T10:37:12;4.07;;;2.92;;
11970;SDS011;6045;42.682;23.294;2023-04-21T10:39:54;2.67;;;2.30;;
11970;SDS011;6045;42.682;23.294;2023-04-21T10:42:22;3.85;;;2.53;;
11970;SDS011;6045;42.682;23.294;2023-04-21T10:45:01;3.63;;;2.78;;
11970;SDS011;6045;42.682;23.294;2023-04-21T10:47:35;3.45;;;2.78;;
11970;SDS011;6045;42.682;23.294;2023-04-21T10:50:11;4.07;;;2.67;;
11970;SDS011;6045;42.682;23.294;2023-04-21T10:52:42;3.97;;;2.72;;
11970;SDS011;6045;42.682;23.294;2023-04-21T10:55:11;3.17;;;2.58;;
11970;SDS011;6045;42.682;23.294;2023-04-21T10:57:40;3.85;;;3.25;;
11970;SDS011;6045;42.682;23.294;2023-04-21T11:00:12;2.92;;;2.40;;
11970;SDS011;6045;42.682;23.294;2023-04-21T11:02:40;3.15;;;2.47;;
11970;SDS011;6045;42.682;23.294;2023-04-21T11:05:08;2.10;;;1.90;;
11970;SDS011;6045;42.682;23.294;2023-04-21T11:07:35;5.13;;;2.30;;
11970;SDS011;6045;42.682;23.294;2023-04-21T11:10:02;2.70;;;1.95;;
11970;SDS011;6045;42.682;23.294;2023-04-21T11:12:33;2.95;;;1.90;;
11970;SDS011;6045;42.682;23.294;2023-04-21T11:15:02;3.33;;;2.38;;
11970;SDS011;6045;42.682;23.294;2023-04-21T11:17:31;2.67;;;2.35;;
11970;SDS011;6045;42.682;23.294;2023-04-21T11:19:58;3.13;;;2.22;;
11970;SDS011;6045;42.682;23.294;2023-04-21T11:22:28;3.38;;;2.45;;
11970;SDS011;6045;42.682;23.294;2023-04-21T11:24:55;3.25;;;2.95;;
11970;SDS011;6045;42.682;23.294;2023-04-21T11:27:24;4.25;;;2.10;;
11970;SDS011;6045;42.682;23.294;2023-04-21T11:29:55;2.30;;;1.88;;
11970;SDS011;6045;42.682;23.294;2023-04-21T11:32:22;2.85;;;2.08;;
11970;SDS011;6045;42.682;23.294;2023-04-21T11:34:49;2.08;;;1.88;;
11970;SDS011;6045;42.682;23.294;2023-04-21T11:37:21;2.15;;;1.95;;
11970;SDS011;6045;42.682;23.294;2023-04-21T11:39:55;3.20;;;1.95;;
11970;SDS011;6045;42.682;23.294;2023-04-21T11:42:23;3.38;;;2.25;;
11970;SDS011;6045;42.682;23.294;2023-04-21T11:44:52;3.28;;;2.50;;
11970;SDS011;6045;42.682;23.294;2023-04-21T11:47:22;3.92;;;2.38;;
11970;SDS011;6045;42.682;23.294;2023-04-21T11:49:51;1.90;;;1.80;;
11970;SDS011;6045;42.682;23.294;2023-04-21T11:52:21;2.88;;;1.92;;
11970;SDS011;6045;42.682;23.294;2023-04-21T11:54:52;2.65;;;1.80;;
11970;SDS011;6045;42.682;23.294;2023-04-21T11:57:21;2.17;;;1.65;;
11970;SDS011;6045;42.682;23.294;2023-04-21T11:59:49;2.55;;;2.28;;
11970;SDS011;6045;42.682;23.294;2023-04-21T12:02:24;3.70;;;2.20;;
11970;SDS011;6045;42.682;23.294;2023-04-21T12:04:56;2.35;;;1.95;;
11970;SDS011;6045;42.682;23.294;2023-04-21T12:07:24;2.65;;;1.92;;
11970;SDS011;6045;42.682;23.294;2023-04-21T12:09:51;2.47;;;2.05;;
11970;SDS011;6045;42.682;23.294;2023-04-21T12:12:18;2.38;;;2.08;;
11970;SDS011;6045;42.682;23.294;2023-04-21T12:14:45;4.40;;;1.88;;
11970;SDS011;6045;42.682;23.294;2023-04-21T12:17:11;2.63;;;1.95;;
11970;SDS011;6045;42.682;23.294;2023-04-21T12:19:40;1.88;;;1.77;;
11970;SDS011;6045;42.682;23.294;2023-04-21T12:22:07;3.05;;;2.03;;
11970;SDS011;6045;42.682;23.294;2023-04-21T12:24:35;2.65;;;2.15;;
11970;SDS011;6045;42.682;23.294;2023-04-21T12:27:03;3.90;;;2.20;;
11970;SDS011;6045;42.682;23.294;2023-04-21T12:29:30;3.63;;;2.30;;
11970;SDS011;6045;42.682;23.294;2023-04-21T12:31:59;4.10;;;2.22;;
11970;SDS011;6045;42.682;23.294;2023-04-21T12:34:26;2.30;;;2.10;;
11970;SDS011;6045;42.682;23.294;2023-04-21T12:36:54;3.38;;;2.35;;
11970;SDS011;6045;42.682;23.294;2023-04-21T12:39:21;2.08;;;1.83;;
11970;SDS011;6045;42.682;23.294;2023-04-21T12:41:48;2.28;;;2.08;;
11970;SDS011;6045;42.682;23.294;2023-04-21T12:44:14;2.63;;;2.28;;
11970;SDS011;6045;42.682;23.294;2023-04-21T12:46:41;3.20;;;2.50;;
11970;SDS011;6045;42.682;23.294;2023-04-21T12:49:08;4.50;;;2.92;;
11970;SDS011;6045;42.682;23.294;2023-04-21T12:51:35;8.38;;;3.08;;
11970;SDS011;6045;42.682;23.294;2023-04-21T12:54:04;4.68;;;2.70;;
11970;SDS011;6045;42.682;23.294;2023-04-21T12:56:31;6.55;;;3.17;;
11970;SDS011;6045;42.682;23.294;2023-04-21T12:58:58;4.65;;;2.53;;
11970;SDS011;6045;42.682;23.294;2023-04-21T13:01:24;2.95;;;2.28;;
11970;SDS011;6045;42.682;23.294;2023-04-21T13:03:51;3.63;;;2.47;;
11970;SDS011;6045;42.682;23.294;2023-04-21T13:06:18;3.08;;;2.22;;
11970;SDS011;6045;42.682;23.294;2023-04-21T13:08:44;2.45;;;2.13;;
11970;SDS011;6045;42.682;23.294;2023-04-21T13:11:13;2.50;;;2.30;;
11970;SDS011;6045;42.682;23.294;2023-04-21T13:13:39;3.38;;;2.20;;
11970;SDS011;6045;42.682;23.294;2023-04-21T13:16:06;3.20;;;2.38;;
11970;SDS011;6045;42.682;23.294;2023-04-21T13:18:33;3.45;;;2.35;;
11970;SDS011;6045;42.682;23.294;2023-04-21T13:21:00;4.13;;;2.35;;
11970;SDS011;6045;42.682;23.294;2023-04-21T13:23:27;2.30;;;2.10;;
11970;SDS011;6045;42.682;23.294;2023-04-21T13:25:54;2.03;;;1.92;;
11970;SDS011;6045;42.682;23.294;2023-04-21T13:28:22;3.05;;;2.30;;
11970;SDS011;6045;42.682;23.294;2023-04-21T13:30:50;2.63;;;2.10;;
11970;SDS011;6045;42.682;23.294;2023-04-21T13:33:17;3.10;;;2.35;;
11970;SDS011;6045;42.682;23.294;2023-04-21T13:35:45;4.07;;;2.22;;
11970;SDS011;6045;42.682;23.294;2023-04-21T13:38:12;4.20;;;2.47;;
11970;SDS011;6045;42.682;23.294;2023-04-21T13:40:39;3.67;;;2.50;;
11970;SDS011;6045;42.682;23.294;2023-04-21T13:43:06;2.38;;;1.83;;
11970;SDS011;6045;42.682;23.294;2023-04-21T13:45:35;3.60;;;2.72;;
11970;SDS011;6045;42.682;23.294;2023-04-21T13:48:02;2.28;;;2.08;;
11970;SDS011;6045;42.682;23.294;2023-04-21T13:50:29;3.03;;;2.33;;
11970;SDS011;6045;42.682;23.294;2023-04-21T13:52:56;3.13;;;2.40;;
11970;SDS011;6045;42.682;23.294;2023-04-21T13:55:23;4.65;;;2.75;;
11970;SDS011;6045;42.682;23.294;2023-04-21T13:57:49;4.75;;;2.58;;
11970;SDS011;6045;42.682;23.294;2023-04-21T14:00:16;3.22;;;2.47;;
11970;SDS011;6045;42.682;23.294;2023-04-21T14:02:45;4.07;;;2.30;;
11970;SDS011;6045;42.682;23.294;2023-04-21T14:05:12;2.38;;;2.10;;
11970;SDS011;6045;42.682;23.294;2023-04-21T14:07:38;3.92;;;2.78;;
11970;SDS011;6045;42.682;23.294;2023-04-21T14:10:06;3.97;;;2.65;;
11970;SDS011;6045;42.682;23.294;2023-04-21T14:12:33;4.18;;;2.55;;
11970;SDS011;6045;42.682;23.294;2023-04-21T14:15:00;4.38;;;2.53;;
11970;SDS011;6045;42.682;23.294;2023-04-21T14:17:26;3.72;;;3.10;;
11970;SDS011;6045;42.682;23.294;2023-04-21T14:19:54;4.43;;;3.20;;
11970;SDS011;6045;42.682;23.294;2023-04-21T14:22:21;4.28;;;2.55;;
11970;SDS011;6045;42.682;23.294;2023-04-21T14:24:48;4.60;;;2.95;;
11970;SDS011;6045;42.682;23.294;2023-04-21T14:27:15;7.35;;;4.18;;
11970;SDS011;6045;42.682;23.294;2023-04-21T14:29:42;5.78;;;4.28;;
11970;SDS011;6045;42.682;23.294;2023-04-21T14:32:08;5.50;;;3.20;;
11970;SDS011;6045;42.682;23.294;2023-04-21T14:34:35;4.65;;;3.17;;
11970;SDS011;6045;42.682;23.294;2023-04-21T14:37:03;3.78;;;2.83;;
11970;SDS011;6045;42.682;23.294;2023-04-21T14:39:31;4.47;;;2.72;;
11970;SDS011;6045;42.682;23.294;2023-04-21T14:41:58;4.50;;;2.92;;
11970;SDS011;6045;42.682;23.294;2023-04-21T14:44:25;4.15;;;2.67;;
11970;SDS011;6045;42.682;23.294;2023-04-21T14:46:52;3.40;;;2.45;;
11970;SDS011;6045;42.682;23.294;2023-04-21T14:49:19;6.45;;;3.10;;
11970;SDS011;6045;42.682;23.294;2023-04-21T14:51:46;3.55;;;2.83;;